sensor_id;sensor_type;location;lat;lon;timestamp;P1;durP1;ratioP1;P2;durP2;ratioP2
27957;SDS011;15295;42.658;23.374;2023-12-22T00:02:20;46.53;;;21.40;;
27957;SDS011;15295;42.658;23.374;2023-12-22T00:04:45;51.50;;;24.27;;
27957;SDS011;15295;42.658;23.374;2023-12-22T00:07:11;44.92;;;22.55;;
27957;SDS011;15295;42.658;23.374;2023-12-22T00:09:36;45.78;;;22.13;;
27957;SDS011;15295;42.658;23.374;2023-12-22T00:12:02;47.75;;;23.30;;
27957;SDS011;15295;42.658;23.374;2023-12-22T00:14:28;43.97;;;21.77;;
27957;SDS011;15295;42.658;23.374;2023-12-22T00:16:55;40.72;;;21.42;;
27957;SDS011;15295;42.658;23.374;2023-12-22T00:19:20;42.65;;;20.92;;
27957;SDS011;15295;42.658;23.374;2023-12-22T00:21:45;41.33;;;19.83;;
27957;SDS011;15295;42.658;23.374;2023-12-22T00:24:11;38.22;;;19.33;;
27957;SDS011;15295;42.658;23.374;2023-12-22T00:26:36;40.47;;;19.02;;
27957;SDS011;15295;42.658;23.374;2023-12-22T00:29:02;37.72;;;18.60;;
27957;SDS011;15295;42.658;23.374;2023-12-22T00:31:27;34.65;;;18.00;;
27957;SDS011;15295;42.658;23.374;2023-12-22T00:33:53;40.83;;;18.40;;
27957;SDS011;15295;42.658;23.374;2023-12-22T00:36:37;35.88;;;17.88;;
27957;SDS011;15295;42.658;23.374;2023-12-22T00:39:02;33.67;;;17.95;;
27957;SDS011;15295;42.658;23.374;2023-12-22T00:41:28;34.20;;;17.55;;
27957;SDS011;15295;42.658;23.374;2023-12-22T00:43:53;35.45;;;16.40;;
27957;SDS011;15295;42.658;23.374;2023-12-22T00:46:19;33.60;;;17.58;;
27957;SDS011;15295;42.658;23.374;2023-12-22T00:48:45;39.47;;;18.20;;
27957;SDS011;15295;42.658;23.374;2023-12-22T00:51:11;34.55;;;17.73;;
27957;SDS011;15295;42.658;23.374;2023-12-22T00:53:37;32.13;;;16.77;;
27957;SDS011;15295;42.658;23.374;2023-12-22T00:56:02;32.20;;;16.23;;
27957;SDS011;15295;42.658;23.374;2023-12-22T00:58:31;31.95;;;16.10;;
27957;SDS011;15295;42.658;23.374;2023-12-22T01:00:56;32.78;;;16.08;;
27957;SDS011;15295;42.658;23.374;2023-12-22T01:03:22;33.85;;;16.50;;
27957;SDS011;15295;42.658;23.374;2023-12-22T01:05:47;27.30;;;14.93;;
27957;SDS011;15295;42.658;23.374;2023-12-22T01:08:13;33.47;;;15.52;;
27957;SDS011;15295;42.658;23.374;2023-12-22T01:10:39;32.45;;;16.75;;
27957;SDS011;15295;42.658;23.374;2023-12-22T01:13:05;31.30;;;15.60;;
27957;SDS011;15295;42.658;23.374;2023-12-22T01:15:32;31.15;;;16.60;;
27957;SDS011;15295;42.658;23.374;2023-12-22T01:17:58;33.55;;;17.08;;
27957;SDS011;15295;42.658;23.374;2023-12-22T01:20:24;31.92;;;16.40;;
27957;SDS011;15295;42.658;23.374;2023-12-22T01:22:49;34.33;;;16.45;;
27957;SDS011;15295;42.658;23.374;2023-12-22T01:25:15;33.88;;;17.35;;
27957;SDS011;15295;42.658;23.374;2023-12-22T01:27:40;29.83;;;15.98;;
27957;SDS011;15295;42.658;23.374;2023-12-22T01:30:06;35.05;;;18.05;;
27957;SDS011;15295;42.658;23.374;2023-12-22T01:32:32;33.92;;;15.80;;
27957;SDS011;15295;42.658;23.374;2023-12-22T01:35:00;33.40;;;16.98;;
27957;SDS011;15295;42.658;23.374;2023-12-22T01:37:29;31.05;;;16.35;;
27957;SDS011;15295;42.658;23.374;2023-12-22T01:39:57;33.40;;;17.27;;
27957;SDS011;15295;42.658;23.374;2023-12-22T01:42:23;32.15;;;16.58;;
27957;SDS011;15295;42.658;23.374;2023-12-22T01:44:48;31.05;;;15.90;;
27957;SDS011;15295;42.658;23.374;2023-12-22T01:47:14;31.83;;;17.00;;
27957;SDS011;15295;42.658;23.374;2023-12-22T01:49:40;34.28;;;16.80;;
27957;SDS011;15295;42.658;23.374;2023-12-22T01:52:06;31.83;;;17.02;;
27957;SDS011;15295;42.658;23.374;2023-12-22T01:54:34;37.28;;;17.33;;
27957;SDS011;15295;42.658;23.374;2023-12-22T01:57:00;32.13;;;17.42;;
27957;SDS011;15295;42.658;23.374;2023-12-22T01:59:29;32.45;;;16.60;;
27957;SDS011;15295;42.658;23.374;2023-12-22T02:02:02;30.50;;;16.40;;
27957;SDS011;15295;42.658;23.374;2023-12-22T02:04:31;34.58;;;17.08;;
27957;SDS011;15295;42.658;23.374;2023-12-22T02:06:57;41.97;;;16.83;;
27957;SDS011;15295;42.658;23.374;2023-12-22T02:09:27;30.65;;;16.48;;
27957;SDS011;15295;42.658;23.374;2023-12-22T02:11:52;35.55;;;16.73;;
27957;SDS011;15295;42.658;23.374;2023-12-22T02:14:18;33.47;;;16.80;;
27957;SDS011;15295;42.658;23.374;2023-12-22T02:22:10;31.55;;;16.23;;
27957;SDS011;15295;42.658;23.374;2023-12-22T02:24:40;31.77;;;17.02;;
27957;SDS011;15295;42.658;23.374;2023-12-22T02:30:31;36.45;;;16.13;;
27957;SDS011;15295;42.658;23.374;2023-12-22T02:33:06;33.40;;;17.13;;
27957;SDS011;15295;42.658;23.374;2023-12-22T02:35:36;36.55;;;17.23;;
27957;SDS011;15295;42.658;23.374;2023-12-22T02:38:03;33.40;;;17.25;;
27957;SDS011;15295;42.658;23.374;2023-12-22T02:40:31;33.13;;;16.20;;
27957;SDS011;15295;42.658;23.374;2023-12-22T02:43:05;32.90;;;16.80;;
27957;SDS011;15295;42.658;23.374;2023-12-22T02:45:32;35.70;;;16.73;;
27957;SDS011;15295;42.658;23.374;2023-12-22T02:47:59;37.03;;;16.95;;
27957;SDS011;15295;42.658;23.374;2023-12-22T02:50:26;34.40;;;16.67;;
27957;SDS011;15295;42.658;23.374;2023-12-22T02:52:51;35.72;;;17.67;;
27957;SDS011;15295;42.658;23.374;2023-12-22T02:55:17;31.00;;;17.05;;
27957;SDS011;15295;42.658;23.374;2023-12-22T02:57:42;32.92;;;17.75;;
27957;SDS011;15295;42.658;23.374;2023-12-22T03:00:08;33.25;;;17.23;;
27957;SDS011;15295;42.658;23.374;2023-12-22T03:02:34;35.58;;;18.17;;
27957;SDS011;15295;42.658;23.374;2023-12-22T03:05:00;32.80;;;17.20;;
27957;SDS011;15295;42.658;23.374;2023-12-22T03:07:25;32.53;;;17.52;;
27957;SDS011;15295;42.658;23.374;2023-12-22T03:09:51;35.60;;;17.30;;
27957;SDS011;15295;42.658;23.374;2023-12-22T03:12:16;36.63;;;17.17;;
27957;SDS011;15295;42.658;23.374;2023-12-22T03:14:42;44.17;;;19.65;;
27957;SDS011;15295;42.658;23.374;2023-12-22T03:17:07;42.30;;;21.55;;
27957;SDS011;15295;42.658;23.374;2023-12-22T03:19:33;40.05;;;20.85;;
27957;SDS011;15295;42.658;23.374;2023-12-22T03:21:59;48.80;;;21.83;;
27957;SDS011;15295;42.658;23.374;2023-12-22T03:24:25;47.28;;;22.45;;
27957;SDS011;15295;42.658;23.374;2023-12-22T03:26:58;43.08;;;21.30;;
27957;SDS011;15295;42.658;23.374;2023-12-22T03:29:23;38.95;;;20.70;;
27957;SDS011;15295;42.658;23.374;2023-12-22T03:32:01;37.45;;;20.50;;
27957;SDS011;15295;42.658;23.374;2023-12-22T03:34:27;44.40;;;19.77;;
27957;SDS011;15295;42.658;23.374;2023-12-22T03:36:54;41.47;;;20.10;;
27957;SDS011;15295;42.658;23.374;2023-12-22T03:39:19;49.83;;;20.63;;
27957;SDS011;15295;42.658;23.374;2023-12-22T03:41:46;43.38;;;19.80;;
27957;SDS011;15295;42.658;23.374;2023-12-22T03:44:11;36.08;;;18.60;;
27957;SDS011;15295;42.658;23.374;2023-12-22T03:46:37;38.53;;;19.77;;
27957;SDS011;15295;42.658;23.374;2023-12-22T03:49:02;41.30;;;19.70;;
27957;SDS011;15295;42.658;23.374;2023-12-22T03:51:29;43.35;;;20.33;;
27957;SDS011;15295;42.658;23.374;2023-12-22T03:53:55;37.53;;;18.52;;
27957;SDS011;15295;42.658;23.374;2023-12-22T03:56:21;36.25;;;18.90;;
27957;SDS011;15295;42.658;23.374;2023-12-22T03:58:46;40.75;;;19.48;;
27957;SDS011;15295;42.658;23.374;2023-12-22T04:01:13;42.90;;;19.73;;
27957;SDS011;15295;42.658;23.374;2023-12-22T04:03:40;34.85;;;19.15;;
27957;SDS011;15295;42.658;23.374;2023-12-22T04:06:05;40.97;;;18.40;;
27957;SDS011;15295;42.658;23.374;2023-12-22T04:08:31;40.83;;;18.98;;
27957;SDS011;15295;42.658;23.374;2023-12-22T04:10:58;37.85;;;19.30;;
27957;SDS011;15295;42.658;23.374;2023-12-22T04:13:23;41.55;;;19.33;;
27957;SDS011;15295;42.658;23.374;2023-12-22T04:15:49;37.03;;;19.08;;
27957;SDS011;15295;42.658;23.374;2023-12-22T04:18:14;37.65;;;18.38;;
27957;SDS011;15295;42.658;23.374;2023-12-22T04:20:41;37.22;;;18.75;;
27957;SDS011;15295;42.658;23.374;2023-12-22T04:23:07;33.95;;;17.48;;
27957;SDS011;15295;42.658;23.374;2023-12-22T04:25:32;39.78;;;18.05;;
27957;SDS011;15295;42.658;23.374;2023-12-22T04:27:58;37.25;;;18.13;;
27957;SDS011;15295;42.658;23.374;2023-12-22T04:30:23;35.95;;;17.92;;
27957;SDS011;15295;42.658;23.374;2023-12-22T04:35:18;35.78;;;18.52;;
27957;SDS011;15295;42.658;23.374;2023-12-22T04:37:44;35.38;;;16.13;;
27957;SDS011;15295;42.658;23.374;2023-12-22T04:40:09;34.28;;;17.15;;
27957;SDS011;15295;42.658;23.374;2023-12-22T04:42:37;37.38;;;17.42;;
27957;SDS011;15295;42.658;23.374;2023-12-22T04:45:03;32.35;;;16.33;;
27957;SDS011;15295;42.658;23.374;2023-12-22T04:47:28;32.08;;;17.33;;
27957;SDS011;15295;42.658;23.374;2023-12-22T04:49:54;32.05;;;16.85;;
27957;SDS011;15295;42.658;23.374;2023-12-22T04:52:19;35.33;;;17.27;;
27957;SDS011;15295;42.658;23.374;2023-12-22T04:54:45;32.42;;;16.70;;
27957;SDS011;15295;42.658;23.374;2023-12-22T04:57:11;32.80;;;16.50;;
27957;SDS011;15295;42.658;23.374;2023-12-22T04:59:36;31.30;;;16.40;;
27957;SDS011;15295;42.658;23.374;2023-12-22T05:02:01;33.42;;;15.93;;
27957;SDS011;15295;42.658;23.374;2023-12-22T05:04:27;30.40;;;16.33;;
27957;SDS011;15295;42.658;23.374;2023-12-22T05:06:53;27.63;;;15.50;;
27957;SDS011;15295;42.658;23.374;2023-12-22T05:09:18;28.13;;;14.98;;
27957;SDS011;15295;42.658;23.374;2023-12-22T05:11:44;33.08;;;15.70;;
27957;SDS011;15295;42.658;23.374;2023-12-22T05:14:09;35.78;;;17.20;;
27957;SDS011;15295;42.658;23.374;2023-12-22T05:16:36;35.42;;;18.67;;
27957;SDS011;15295;42.658;23.374;2023-12-22T05:19:01;31.42;;;16.30;;
27957;SDS011;15295;42.658;23.374;2023-12-22T05:21:27;32.20;;;17.90;;
27957;SDS011;15295;42.658;23.374;2023-12-22T05:23:55;26.65;;;15.02;;
27957;SDS011;15295;42.658;23.374;2023-12-22T05:26:21;27.70;;;15.70;;
27957;SDS011;15295;42.658;23.374;2023-12-22T05:28:59;36.63;;;17.42;;
27957;SDS011;15295;42.658;23.374;2023-12-22T05:31:25;27.83;;;15.23;;
27957;SDS011;15295;42.658;23.374;2023-12-22T05:33:52;31.05;;;15.88;;
27957;SDS011;15295;42.658;23.374;2023-12-22T05:36:17;28.23;;;14.52;;
27957;SDS011;15295;42.658;23.374;2023-12-22T05:38:43;27.63;;;14.50;;
27957;SDS011;15295;42.658;23.374;2023-12-22T05:41:08;35.38;;;16.90;;
27957;SDS011;15295;42.658;23.374;2023-12-22T05:43:34;35.78;;;17.65;;
27957;SDS011;15295;42.658;23.374;2023-12-22T05:45:59;33.78;;;17.38;;
27957;SDS011;15295;42.658;23.374;2023-12-22T05:48:27;51.47;;;25.00;;
27957;SDS011;15295;42.658;23.374;2023-12-22T05:50:53;30.27;;;15.38;;
27957;SDS011;15295;42.658;23.374;2023-12-22T05:53:21;28.13;;;15.43;;
27957;SDS011;15295;42.658;23.374;2023-12-22T05:55:46;29.98;;;15.32;;
27957;SDS011;15295;42.658;23.374;2023-12-22T05:58:12;36.25;;;16.88;;
27957;SDS011;15295;42.658;23.374;2023-12-22T06:00:37;34.47;;;17.50;;
27957;SDS011;15295;42.658;23.374;2023-12-22T06:05:34;32.80;;;18.45;;
27957;SDS011;15295;42.658;23.374;2023-12-22T06:08:00;33.70;;;16.27;;
27957;SDS011;15295;42.658;23.374;2023-12-22T06:10:25;36.40;;;17.08;;
27957;SDS011;15295;42.658;23.374;2023-12-22T06:12:51;38.85;;;18.80;;
27957;SDS011;15295;42.658;23.374;2023-12-22T06:15:16;33.03;;;17.00;;
27957;SDS011;15295;42.658;23.374;2023-12-22T06:17:42;30.40;;;16.63;;
27957;SDS011;15295;42.658;23.374;2023-12-22T06:20:12;32.90;;;18.05;;
27957;SDS011;15295;42.658;23.374;2023-12-22T06:22:38;35.05;;;17.92;;
27957;SDS011;15295;42.658;23.374;2023-12-22T06:25:05;39.47;;;17.15;;
27957;SDS011;15295;42.658;23.374;2023-12-22T06:27:35;64.05;;;27.10;;
27957;SDS011;15295;42.658;23.374;2023-12-22T06:30:04;42.85;;;20.52;;
27957;SDS011;15295;42.658;23.374;2023-12-22T06:32:36;51.28;;;23.05;;
27957;SDS011;15295;42.658;23.374;2023-12-22T06:35:04;35.00;;;18.38;;
27957;SDS011;15295;42.658;23.374;2023-12-22T06:37:30;53.67;;;25.27;;
27957;SDS011;15295;42.658;23.374;2023-12-22T06:39:57;48.50;;;22.38;;
27957;SDS011;15295;42.658;23.374;2023-12-22T06:42:25;46.13;;;20.85;;
27957;SDS011;15295;42.658;23.374;2023-12-22T06:44:51;37.53;;;20.67;;
27957;SDS011;15295;42.658;23.374;2023-12-22T06:47:16;45.30;;;21.95;;
27957;SDS011;15295;42.658;23.374;2023-12-22T06:49:47;63.20;;;28.70;;
27957;SDS011;15295;42.658;23.374;2023-12-22T06:52:13;90.38;;;35.47;;
27957;SDS011;15295;42.658;23.374;2023-12-22T06:54:38;41.40;;;21.58;;
27957;SDS011;15295;42.658;23.374;2023-12-22T06:57:04;43.38;;;21.63;;
27957;SDS011;15295;42.658;23.374;2023-12-22T06:59:29;52.38;;;25.23;;
27957;SDS011;15295;42.658;23.374;2023-12-22T07:01:55;72.15;;;32.25;;
27957;SDS011;15295;42.658;23.374;2023-12-22T07:06:56;42.45;;;20.95;;
27957;SDS011;15295;42.658;23.374;2023-12-22T07:11:48;47.15;;;24.27;;
27957;SDS011;15295;42.658;23.374;2023-12-22T07:14:16;35.92;;;20.30;;
27957;SDS011;15295;42.658;23.374;2023-12-22T07:16:43;38.17;;;20.25;;
27957;SDS011;15295;42.658;23.374;2023-12-22T07:19:09;51.67;;;24.80;;
27957;SDS011;15295;42.658;23.374;2023-12-22T07:21:37;42.17;;;19.45;;
27957;SDS011;15295;42.658;23.374;2023-12-22T07:24:04;38.22;;;19.35;;
27957;SDS011;15295;42.658;23.374;2023-12-22T07:26:30;42.38;;;20.95;;
27957;SDS011;15295;42.658;23.374;2023-12-22T07:28:57;39.25;;;20.15;;
27957;SDS011;15295;42.658;23.374;2023-12-22T07:31:23;41.28;;;20.30;;
27957;SDS011;15295;42.658;23.374;2023-12-22T07:33:50;54.17;;;24.05;;
27957;SDS011;15295;42.658;23.374;2023-12-22T07:36:16;67.57;;;26.65;;
27957;SDS011;15295;42.658;23.374;2023-12-22T07:38:43;83.05;;;34.75;;
27957;SDS011;15295;42.658;23.374;2023-12-22T07:41:09;37.22;;;19.02;;
27957;SDS011;15295;42.658;23.374;2023-12-22T07:43:35;35.05;;;17.60;;
27957;SDS011;15295;42.658;23.374;2023-12-22T07:46:01;44.72;;;20.73;;
27957;SDS011;15295;42.658;23.374;2023-12-22T07:48:27;41.10;;;19.80;;
27957;SDS011;15295;42.658;23.374;2023-12-22T07:50:52;45.20;;;21.20;;
27957;SDS011;15295;42.658;23.374;2023-12-22T07:53:18;50.70;;;22.50;;
27957;SDS011;15295;42.658;23.374;2023-12-22T07:55:43;33.83;;;15.98;;
27957;SDS011;15295;42.658;23.374;2023-12-22T07:58:10;41.88;;;20.40;;
27957;SDS011;15295;42.658;23.374;2023-12-22T08:00:43;31.17;;;16.90;;
27957;SDS011;15295;42.658;23.374;2023-12-22T08:03:09;29.98;;;16.70;;
27957;SDS011;15295;42.658;23.374;2023-12-22T08:05:37;31.20;;;18.10;;
27957;SDS011;15295;42.658;23.374;2023-12-22T08:08:02;31.08;;;18.15;;
27957;SDS011;15295;42.658;23.374;2023-12-22T08:10:28;27.42;;;16.40;;
27957;SDS011;15295;42.658;23.374;2023-12-22T08:12:53;25.20;;;14.90;;
27957;SDS011;15295;42.658;23.374;2023-12-22T08:15:19;25.70;;;14.77;;
27957;SDS011;15295;42.658;23.374;2023-12-22T08:17:48;32.55;;;15.82;;
27957;SDS011;15295;42.658;23.374;2023-12-22T08:20:20;37.45;;;21.33;;
27957;SDS011;15295;42.658;23.374;2023-12-22T08:22:46;32.95;;;17.83;;
27957;SDS011;15295;42.658;23.374;2023-12-22T08:25:13;29.83;;;16.17;;
27957;SDS011;15295;42.658;23.374;2023-12-22T08:27:51;31.92;;;16.27;;
27957;SDS011;15295;42.658;23.374;2023-12-22T08:30:24;31.42;;;18.35;;
27957;SDS011;15295;42.658;23.374;2023-12-22T08:32:49;42.90;;;25.00;;
27957;SDS011;15295;42.658;23.374;2023-12-22T08:35:16;36.47;;;22.00;;
27957;SDS011;15295;42.658;23.374;2023-12-22T08:37:42;35.85;;;18.15;;
27957;SDS011;15295;42.658;23.374;2023-12-22T08:40:09;33.03;;;17.75;;
27957;SDS011;15295;42.658;23.374;2023-12-22T08:42:35;33.13;;;17.83;;
27957;SDS011;15295;42.658;23.374;2023-12-22T08:45:03;32.38;;;16.73;;
27957;SDS011;15295;42.658;23.374;2023-12-22T08:47:30;32.25;;;18.80;;
27957;SDS011;15295;42.658;23.374;2023-12-22T08:49:56;34.08;;;17.73;;
27957;SDS011;15295;42.658;23.374;2023-12-22T08:52:29;32.55;;;17.70;;
27957;SDS011;15295;42.658;23.374;2023-12-22T08:54:57;31.55;;;17.90;;
27957;SDS011;15295;42.658;23.374;2023-12-22T08:57:23;30.83;;;16.35;;
27957;SDS011;15295;42.658;23.374;2023-12-22T08:59:52;28.92;;;16.63;;
27957;SDS011;15295;42.658;23.374;2023-12-22T09:02:17;77.40;;;35.15;;
27957;SDS011;15295;42.658;23.374;2023-12-22T09:04:43;51.97;;;26.27;;
27957;SDS011;15295;42.658;23.374;2023-12-22T09:07:08;45.85;;;23.80;;
27957;SDS011;15295;42.658;23.374;2023-12-22T09:09:35;41.83;;;21.55;;
27957;SDS011;15295;42.658;23.374;2023-12-22T09:12:06;39.85;;;20.42;;
27957;SDS011;15295;42.658;23.374;2023-12-22T09:14:32;34.85;;;19.65;;
27957;SDS011;15295;42.658;23.374;2023-12-22T09:16:58;42.58;;;19.20;;
27957;SDS011;15295;42.658;23.374;2023-12-22T09:19:24;35.78;;;19.63;;
27957;SDS011;15295;42.658;23.374;2023-12-22T09:21:50;41.88;;;21.73;;
27957;SDS011;15295;42.658;23.374;2023-12-22T09:24:25;36.83;;;21.73;;
27957;SDS011;15295;42.658;23.374;2023-12-22T09:29:46;40.28;;;21.45;;
27957;SDS011;15295;42.658;23.374;2023-12-22T09:34:48;43.20;;;24.13;;
27957;SDS011;15295;42.658;23.374;2023-12-22T09:37:20;48.90;;;25.52;;
27957;SDS011;15295;42.658;23.374;2023-12-22T09:39:45;47.75;;;26.63;;
27957;SDS011;15295;42.658;23.374;2023-12-22T09:42:11;47.05;;;24.50;;
27957;SDS011;15295;42.658;23.374;2023-12-22T09:44:37;40.25;;;21.58;;
27957;SDS011;15295;42.658;23.374;2023-12-22T09:47:09;46.78;;;24.05;;
27957;SDS011;15295;42.658;23.374;2023-12-22T09:49:35;44.17;;;22.23;;
27957;SDS011;15295;42.658;23.374;2023-12-22T09:52:02;43.75;;;23.00;;
27957;SDS011;15295;42.658;23.374;2023-12-22T09:54:31;43.35;;;23.35;;
27957;SDS011;15295;42.658;23.374;2023-12-22T09:57:10;47.50;;;22.15;;
27957;SDS011;15295;42.658;23.374;2023-12-22T09:59:36;51.33;;;24.45;;
27957;SDS011;15295;42.658;23.374;2023-12-22T10:02:03;43.78;;;22.88;;
27957;SDS011;15295;42.658;23.374;2023-12-22T10:04:33;45.67;;;23.70;;
27957;SDS011;15295;42.658;23.374;2023-12-22T10:07:14;48.45;;;24.83;;
27957;SDS011;15295;42.658;23.374;2023-12-22T10:09:42;56.63;;;26.00;;
27957;SDS011;15295;42.658;23.374;2023-12-22T10:12:11;45.88;;;23.73;;
27957;SDS011;15295;42.658;23.374;2023-12-22T10:14:38;46.28;;;23.92;;
27957;SDS011;15295;42.658;23.374;2023-12-22T10:17:05;53.38;;;25.27;;
27957;SDS011;15295;42.658;23.374;2023-12-22T10:19:31;47.13;;;24.23;;
27957;SDS011;15295;42.658;23.374;2023-12-22T10:21:56;60.53;;;25.42;;
27957;SDS011;15295;42.658;23.374;2023-12-22T10:24:41;47.50;;;25.42;;
27957;SDS011;15295;42.658;23.374;2023-12-22T10:27:08;47.58;;;25.27;;
27957;SDS011;15295;42.658;23.374;2023-12-22T10:29:36;61.38;;;26.50;;
27957;SDS011;15295;42.658;23.374;2023-12-22T10:32:02;46.38;;;26.42;;
27957;SDS011;15295;42.658;23.374;2023-12-22T10:34:29;54.15;;;28.15;;
27957;SDS011;15295;42.658;23.374;2023-12-22T10:36:55;53.45;;;26.25;;
27957;SDS011;15295;42.658;23.374;2023-12-22T10:39:20;54.38;;;25.48;;
27957;SDS011;15295;42.658;23.374;2023-12-22T10:41:47;51.83;;;28.63;;
27957;SDS011;15295;42.658;23.374;2023-12-22T10:44:15;51.80;;;27.75;;
27957;SDS011;15295;42.658;23.374;2023-12-22T10:46:45;47.70;;;25.83;;
27957;SDS011;15295;42.658;23.374;2023-12-22T10:49:12;53.85;;;25.00;;
27957;SDS011;15295;42.658;23.374;2023-12-22T10:51:37;50.28;;;25.25;;
27957;SDS011;15295;42.658;23.374;2023-12-22T10:54:04;43.63;;;25.38;;
27957;SDS011;15295;42.658;23.374;2023-12-22T10:56:31;35.75;;;20.00;;
27957;SDS011;15295;42.658;23.374;2023-12-22T10:58:56;38.50;;;20.50;;
27957;SDS011;15295;42.658;23.374;2023-12-22T11:01:23;40.55;;;21.00;;
27957;SDS011;15295;42.658;23.374;2023-12-22T11:04:00;34.65;;;21.85;;
27957;SDS011;15295;42.658;23.374;2023-12-22T11:06:29;36.00;;;19.90;;
27957;SDS011;15295;42.658;23.374;2023-12-22T11:08:57;34.38;;;19.63;;
27957;SDS011;15295;42.658;23.374;2023-12-22T11:13:55;36.47;;;19.88;;
27957;SDS011;15295;42.658;23.374;2023-12-22T11:16:21;34.22;;;19.10;;
27957;SDS011;15295;42.658;23.374;2023-12-22T11:18:48;30.00;;;19.25;;
27957;SDS011;15295;42.658;23.374;2023-12-22T11:21:15;30.60;;;18.58;;
27957;SDS011;15295;42.658;23.374;2023-12-22T11:23:41;30.27;;;17.13;;
27957;SDS011;15295;42.658;23.374;2023-12-22T11:26:09;26.67;;;17.13;;
27957;SDS011;15295;42.658;23.374;2023-12-22T11:28:37;28.85;;;16.15;;
27957;SDS011;15295;42.658;23.374;2023-12-22T11:31:06;27.85;;;15.18;;
27957;SDS011;15295;42.658;23.374;2023-12-22T11:33:34;30.33;;;17.60;;
27957;SDS011;15295;42.658;23.374;2023-12-22T11:36:03;35.35;;;17.90;;
27957;SDS011;15295;42.658;23.374;2023-12-22T11:38:31;86.95;;;52.70;;
27957;SDS011;15295;42.658;23.374;2023-12-22T11:40:59;45.28;;;29.40;;
27957;SDS011;15295;42.658;23.374;2023-12-22T11:43:26;18.98;;;10.80;;
27957;SDS011;15295;42.658;23.374;2023-12-22T11:45:52;11.73;;;7.50;;
27957;SDS011;15295;42.658;23.374;2023-12-22T11:48:19;10.90;;;7.30;;
27957;SDS011;15295;42.658;23.374;2023-12-22T11:50:46;75.43;;;51.88;;
27957;SDS011;15295;42.658;23.374;2023-12-22T11:53:22;17.00;;;10.30;;
27957;SDS011;15295;42.658;23.374;2023-12-22T11:56:03;13.05;;;9.02;;
27957;SDS011;15295;42.658;23.374;2023-12-22T11:58:34;13.45;;;9.20;;
27957;SDS011;15295;42.658;23.374;2023-12-22T12:01:10;11.00;;;6.25;;
27957;SDS011;15295;42.658;23.374;2023-12-22T12:06:32;5.00;;;2.70;;
27957;SDS011;15295;42.658;23.374;2023-12-22T12:09:03;3.97;;;2.63;;
27957;SDS011;15295;42.658;23.374;2023-12-22T12:17:06;2.28;;;1.70;;
27957;SDS011;15295;42.658;23.374;2023-12-22T12:19:41;2.88;;;1.73;;
27957;SDS011;15295;42.658;23.374;2023-12-22T12:22:11;3.28;;;1.60;;
27957;SDS011;15295;42.658;23.374;2023-12-22T12:24:38;3.58;;;1.50;;
27957;SDS011;15295;42.658;23.374;2023-12-22T12:27:04;2.72;;;1.52;;
27957;SDS011;15295;42.658;23.374;2023-12-22T12:32:43;5.65;;;2.92;;
27957;SDS011;15295;42.658;23.374;2023-12-22T12:35:12;6.25;;;3.95;;
27957;SDS011;15295;42.658;23.374;2023-12-22T12:37:38;5.22;;;2.50;;
27957;SDS011;15295;42.658;23.374;2023-12-22T12:40:04;3.08;;;1.80;;
27957;SDS011;15295;42.658;23.374;2023-12-22T12:42:33;2.63;;;1.65;;
27957;SDS011;15295;42.658;23.374;2023-12-22T12:45:03;4.53;;;2.92;;
27957;SDS011;15295;42.658;23.374;2023-12-22T12:47:29;9.77;;;4.43;;
27957;SDS011;15295;42.658;23.374;2023-12-22T12:50:00;13.35;;;7.40;;
27957;SDS011;15295;42.658;23.374;2023-12-22T12:52:28;25.60;;;14.52;;
27957;SDS011;15295;42.658;23.374;2023-12-22T12:54:54;7.63;;;4.82;;
27957;SDS011;15295;42.658;23.374;2023-12-22T12:57:20;6.90;;;4.38;;
27957;SDS011;15295;42.658;23.374;2023-12-22T12:59:50;19.40;;;11.95;;
27957;SDS011;15295;42.658;23.374;2023-12-22T13:02:16;12.00;;;6.78;;
27957;SDS011;15295;42.658;23.374;2023-12-22T13:04:42;6.22;;;3.38;;
27957;SDS011;15295;42.658;23.374;2023-12-22T13:07:08;8.43;;;4.60;;
27957;SDS011;15295;42.658;23.374;2023-12-22T13:09:40;3.97;;;2.10;;
27957;SDS011;15295;42.658;23.374;2023-12-22T13:12:07;5.50;;;2.67;;
27957;SDS011;15295;42.658;23.374;2023-12-22T13:14:33;2.95;;;2.22;;
27957;SDS011;15295;42.658;23.374;2023-12-22T13:17:04;3.10;;;1.75;;
27957;SDS011;15295;42.658;23.374;2023-12-22T13:19:31;1.85;;;1.50;;
27957;SDS011;15295;42.658;23.374;2023-12-22T13:21:57;3.20;;;2.13;;
27957;SDS011;15295;42.658;23.374;2023-12-22T13:24:23;4.60;;;2.17;;
27957;SDS011;15295;42.658;23.374;2023-12-22T13:27:03;4.57;;;2.70;;
27957;SDS011;15295;42.658;23.374;2023-12-22T13:29:41;7.70;;;3.35;;
27957;SDS011;15295;42.658;23.374;2023-12-22T13:32:19;5.22;;;2.70;;
27957;SDS011;15295;42.658;23.374;2023-12-22T13:34:51;9.23;;;3.53;;
27957;SDS011;15295;42.658;23.374;2023-12-22T13:37:20;5.60;;;2.67;;
27957;SDS011;15295;42.658;23.374;2023-12-22T13:42:24;5.05;;;3.22;;
27957;SDS011;15295;42.658;23.374;2023-12-22T13:44:50;3.45;;;2.33;;
27957;SDS011;15295;42.658;23.374;2023-12-22T13:47:17;3.13;;;2.22;;
27957;SDS011;15295;42.658;23.374;2023-12-22T13:49:57;3.75;;;1.77;;
27957;SDS011;15295;42.658;23.374;2023-12-22T13:52:30;5.40;;;1.95;;
27957;SDS011;15295;42.658;23.374;2023-12-22T13:55:09;5.78;;;2.70;;
27957;SDS011;15295;42.658;23.374;2023-12-22T13:57:36;5.72;;;3.00;;
27957;SDS011;15295;42.658;23.374;2023-12-22T14:00:24;7.10;;;4.50;;
27957;SDS011;15295;42.658;23.374;2023-12-22T14:02:54;5.07;;;3.28;;
27957;SDS011;15295;42.658;23.374;2023-12-22T14:05:19;4.28;;;2.28;;
27957;SDS011;15295;42.658;23.374;2023-12-22T14:07:46;5.43;;;2.75;;
27957;SDS011;15295;42.658;23.374;2023-12-22T14:10:14;4.78;;;2.00;;
27957;SDS011;15295;42.658;23.374;2023-12-22T14:12:40;8.38;;;4.13;;
27957;SDS011;15295;42.658;23.374;2023-12-22T14:15:06;3.30;;;2.20;;
27957;SDS011;15295;42.658;23.374;2023-12-22T14:20:18;3.25;;;2.33;;
27957;SDS011;15295;42.658;23.374;2023-12-22T14:22:44;4.43;;;2.25;;
27957;SDS011;15295;42.658;23.374;2023-12-22T14:25:10;4.75;;;2.90;;
27957;SDS011;15295;42.658;23.374;2023-12-22T14:27:36;3.20;;;1.85;;
27957;SDS011;15295;42.658;23.374;2023-12-22T14:30:02;3.60;;;2.30;;
27957;SDS011;15295;42.658;23.374;2023-12-22T14:32:28;5.75;;;4.55;;
27957;SDS011;15295;42.658;23.374;2023-12-22T14:34:54;4.50;;;2.63;;
27957;SDS011;15295;42.658;23.374;2023-12-22T14:37:21;4.60;;;2.45;;
27957;SDS011;15295;42.658;23.374;2023-12-22T14:39:48;2.72;;;1.95;;
27957;SDS011;15295;42.658;23.374;2023-12-22T14:42:14;4.45;;;2.63;;
27957;SDS011;15295;42.658;23.374;2023-12-22T14:44:40;6.07;;;2.22;;
27957;SDS011;15295;42.658;23.374;2023-12-22T14:47:07;12.77;;;7.85;;
27957;SDS011;15295;42.658;23.374;2023-12-22T14:49:36;5.47;;;3.08;;
27957;SDS011;15295;42.658;23.374;2023-12-22T14:52:02;3.92;;;2.28;;
27957;SDS011;15295;42.658;23.374;2023-12-22T14:54:27;5.68;;;2.70;;
27957;SDS011;15295;42.658;23.374;2023-12-22T14:56:53;5.82;;;2.65;;
27957;SDS011;15295;42.658;23.374;2023-12-22T14:59:24;6.85;;;2.85;;